createdAt,value
2023-01-26T00:01:10.496Z,9.17
2023-01-26T00:03:38.517Z,9.22
2023-01-26T00:06:06.515Z,9.22
2023-01-26T00:08:37.486Z,9.18
2023-01-26T00:11:06.011Z,9.13
2023-01-26T00:13:34.008Z,9.16
2023-01-26T00:16:02.468Z,9.13
2023-01-26T00:18:31.891Z,8.99
2023-01-26T00:20:59.950Z,9.15
2023-01-26T00:23:28.382Z,9.18
2023-01-26T00:25:56.321Z,9.24
2023-01-26T00:28:24.360Z,9.07
2023-01-26T00:30:52.351Z,9.33
2023-01-26T00:33:20.341Z,9.34
2023-01-26T00:35:56.525Z,9.29
2023-01-26T00:38:24.570Z,9.29
2023-01-26T00:40:52.520Z,9.27
2023-01-26T00:43:20.441Z,9.34
2023-01-26T00:45:48.359Z,9.34
2023-01-26T00:48:16.313Z,9.33
2023-01-26T00:50:44.242Z,9.34
2023-01-26T00:53:13.607Z,9.36
2023-01-26T00:55:41.532Z,9.34
2023-01-26T00:58:09.583Z,9.32
2023-01-26T01:00:38.459Z,9.28
2023-01-26T01:03:06.550Z,9.19
2023-01-26T01:05:34.622Z,9.23
2023-01-26T01:08:02.683Z,9.25
2023-01-26T01:10:32.037Z,9.29
2023-01-26T01:13:00.016Z,9.32
2023-01-26T01:15:27.978Z,9.30
2023-01-26T01:17:55.967Z,9.26
2023-01-26T01:20:23.917Z,9.21
2023-01-26T01:22:52.451Z,9.20
2023-01-26T01:25:20.464Z,9.19
2023-01-26T01:27:49.779Z,9.35
2023-01-26T01:30:17.691Z,9.48
2023-01-26T01:32:49.676Z,9.61
2023-01-26T01:35:17.727Z,9.49
2023-01-26T01:37:45.741Z,9.67
2023-01-26T01:40:14.321Z,9.70
2023-01-26T01:42:49.466Z,9.71
2023-01-26T01:45:40.670Z,9.68
2023-01-26T01:48:10.890Z,9.67
2023-01-26T01:50:39.717Z,9.64
2023-01-26T01:53:07.782Z,9.64
2023-01-26T01:55:35.726Z,9.58
2023-01-26T01:58:05.028Z,9.53
2023-01-26T02:00:33.009Z,9.47
2023-01-26T02:03:14.989Z,9.40
2023-01-26T02:05:47.516Z,9.41
2023-01-26T02:08:16.083Z,9.41
2023-01-26T02:10:44.291Z,9.43
2023-01-26T02:13:13.566Z,9.38
2023-01-26T02:15:41.495Z,9.52
2023-01-26T02:18:11.516Z,9.50
2023-01-26T02:20:44.176Z,9.55
2023-01-26T02:23:26.401Z,9.54
2023-01-26T02:26:05.742Z,9.53
2023-01-26T02:28:34.004Z,9.53
2023-01-26T02:31:02.096Z,9.52
2023-01-26T02:33:30.709Z,9.52
2023-01-26T02:35:58.627Z,9.52
2023-01-26T02:38:27.896Z,9.50
2023-01-26T02:40:56.843Z,9.50
2023-01-26T02:43:26.334Z,9.51
2023-01-26T02:45:54.365Z,9.50
2023-01-26T02:48:36.137Z,9.49
2023-01-26T02:51:04.091Z,9.51
2023-01-26T02:53:32.032Z,9.54
2023-01-26T02:55:59.017Z,9.57
2023-01-26T02:58:28.331Z,9.49
2023-01-26T03:00:56.302Z,9.60
2023-01-26T03:03:25.490Z,9.56
2023-01-26T03:05:53.513Z,9.57
2023-01-26T03:08:24.756Z,9.62
2023-01-26T03:10:52.679Z,9.61
2023-01-26T03:13:20.602Z,9.60
2023-01-26T03:15:54.729Z,9.57
2023-01-26T03:18:40.854Z,9.55
2023-01-26T03:21:29.384Z,9.53
2023-01-26T03:24:14.571Z,9.53
2023-01-26T03:27:00.231Z,9.54
2023-01-26T03:29:28.625Z,9.52
2023-01-26T03:31:59.307Z,9.46
2023-01-26T03:34:27.349Z,9.54
2023-01-26T03:36:55.517Z,9.53
2023-01-26T03:39:40.802Z,9.53
2023-01-26T03:42:26.242Z,9.52
2023-01-26T03:45:11.467Z,9.49
2023-01-26T03:47:58.426Z,9.47
2023-01-26T03:50:43.532Z,9.36
2023-01-26T03:53:32.988Z,9.41
2023-01-26T03:56:18.418Z,9.38
2023-01-26T03:58:46.589Z,9.40
2023-01-26T04:01:20.161Z,9.40
2023-01-26T04:04:08.151Z,9.43
2023-01-26T04:06:53.441Z,9.41
2023-01-26T04:09:21.517Z,9.39
2023-01-26T04:11:49.597Z,9.41
2023-01-26T04:14:38.193Z,9.45
2023-01-26T04:17:35.374Z,9.35
2023-01-26T04:20:22.869Z,9.37
2023-01-26T04:22:50.830Z,9.34
2023-01-26T04:25:20.205Z,9.33
2023-01-26T04:27:48.157Z,9.34
2023-01-26T04:30:17.022Z,9.35
2023-01-26T04:32:46.267Z,9.35
2023-01-26T04:35:15.737Z,9.33
2023-01-26T04:37:43.722Z,9.34
2023-01-26T04:40:12.983Z,9.34
2023-01-26T04:42:41.223Z,9.32
2023-01-26T04:45:11.314Z,9.28
2023-01-26T04:47:39.219Z,9.28
2023-01-26T04:50:07.779Z,9.27
2023-01-26T04:52:37.105Z,9.24
2023-01-26T04:55:05.537Z,9.24
2023-01-26T04:57:33.462Z,9.23
2023-01-26T05:00:01.409Z,9.22
2023-01-26T05:02:30.591Z,9.19
2023-01-26T05:04:58.639Z,9.20
2023-01-26T05:07:26.590Z,9.15
2023-01-26T05:09:55.883Z,9.14
2023-01-26T05:12:36.337Z,9.12
2023-01-26T05:15:04.474Z,9.08
2023-01-26T05:17:32.381Z,9.10
2023-01-26T05:20:00.288Z,9.09
2023-01-26T05:22:28.274Z,9.06
2023-01-26T05:24:57.593Z,9.07
2023-01-26T05:27:25.587Z,9.07
2023-01-26T05:29:53.531Z,9.06
2023-01-26T05:32:22.217Z,9.09
2023-01-26T05:34:50.146Z,9.10
2023-01-26T05:37:18.058Z,9.11
2023-01-26T05:39:45.979Z,9.09
2023-01-26T05:42:15.330Z,9.10
2023-01-26T05:44:43.279Z,9.09
2023-01-26T05:47:11.486Z,9.09
2023-01-26T05:49:42.812Z,9.07
2023-01-26T05:52:11.100Z,9.05
2023-01-26T05:54:38.995Z,9.06
2023-01-26T05:57:06.918Z,9.05
2023-01-26T05:59:36.213Z,9.04
2023-01-26T06:02:04.204Z,9.02
2023-01-26T06:04:32.306Z,9.01
2023-01-26T06:07:00.711Z,9.00
2023-01-26T06:09:28.655Z,9.02
2023-01-26T06:11:56.572Z,9.03
2023-01-26T06:14:24.584Z,8.97
2023-01-26T06:16:54.845Z,9.02
2023-01-26T06:19:22.912Z,9.06
2023-01-26T06:21:50.860Z,9.05
2023-01-26T06:24:18.833Z,9.05
2023-01-26T06:26:48.569Z,9.01
2023-01-26T06:29:16.594Z,9.06
2023-01-26T06:31:44.601Z,9.03
2023-01-26T06:34:14.003Z,8.96
2023-01-26T06:36:41.984Z,8.79
2023-01-26T06:39:10.590Z,9.03
2023-01-26T06:41:38.550Z,9.03
2023-01-26T06:44:06.767Z,8.99
2023-01-26T06:46:34.719Z,8.98
2023-01-26T06:49:03.272Z,8.97
2023-01-26T06:51:43.880Z,8.95
2023-01-26T06:54:11.974Z,8.91
2023-01-26T06:56:40.026Z,8.90
2023-01-26T06:59:09.882Z,8.90
2023-01-26T07:01:39.485Z,8.90
2023-01-26T07:04:07.472Z,8.89
2023-01-26T07:06:35.485Z,8.87
2023-01-26T07:09:04.980Z,8.85
2023-01-26T07:11:33.045Z,8.85
2023-01-26T07:14:01.039Z,8.85
2023-01-26T07:16:29.268Z,8.79
2023-01-26T07:18:57.608Z,8.82
2023-01-26T07:21:25.589Z,8.89
2023-01-26T07:23:54.207Z,8.90
2023-01-26T07:26:23.576Z,8.89
2023-01-26T07:28:51.555Z,8.90
2023-01-26T07:31:19.580Z,8.84
2023-01-26T07:33:47.594Z,8.89
2023-01-26T07:36:15.518Z,8.82
2023-01-26T07:38:43.439Z,8.81
2023-01-26T07:41:12.911Z,8.82
2023-01-26T07:43:42.627Z,8.86
2023-01-26T07:46:12.270Z,8.84
2023-01-26T07:48:40.863Z,8.84
2023-01-26T07:51:11.211Z,8.80
2023-01-26T07:53:41.192Z,8.82
2023-01-26T07:56:10.323Z,8.83
2023-01-26T07:58:38.253Z,8.81
2023-01-26T08:01:11.780Z,8.81
2023-01-26T08:03:39.771Z,8.80
2023-01-26T08:06:11.662Z,8.79
2023-01-26T08:08:41.147Z,8.81
2023-01-26T08:11:09.602Z,8.82
2023-01-26T08:13:37.694Z,8.81
2023-01-26T08:16:06.782Z,8.82
2023-01-26T08:18:36.134Z,8.84
2023-01-26T08:21:04.354Z,8.86
2023-01-26T08:23:32.320Z,8.89
2023-01-26T08:26:02.332Z,8.84
2023-01-26T08:28:30.364Z,8.93
2023-01-26T08:30:58.451Z,8.99
2023-01-26T08:33:26.506Z,8.96
2023-01-26T08:35:55.951Z,9.08
2023-01-26T08:38:23.950Z,9.14
2023-01-26T08:40:53.829Z,9.10
2023-01-26T08:43:21.783Z,9.21
2023-01-26T08:45:49.824Z,9.25
2023-01-26T08:48:18.345Z,9.28
2023-01-26T08:50:46.317Z,9.32
2023-01-26T08:53:15.679Z,9.37
2023-01-26T08:55:43.600Z,9.42
2023-01-26T08:58:11.519Z,9.47
2023-01-26T09:00:39.471Z,9.52
2023-01-26T09:03:07.493Z,9.58
2023-01-26T09:05:36.413Z,9.60
2023-01-26T09:08:04.488Z,9.71
2023-01-26T09:10:33.895Z,9.70
2023-01-26T09:13:02.152Z,9.55
2023-01-26T09:15:30.133Z,9.92
2023-01-26T09:18:00.678Z,9.96
2023-01-26T09:20:28.858Z,10.04
2023-01-26T09:22:57.183Z,10.08
2023-01-26T09:25:25.127Z,10.13
2023-01-26T09:27:54.546Z,10.19
2023-01-26T09:30:24.819Z,10.26
2023-01-26T09:32:52.825Z,10.31
2023-01-26T09:35:20.736Z,10.36
2023-01-26T09:37:48.669Z,10.44
2023-01-26T09:40:18.119Z,10.51
2023-01-26T09:43:01.749Z,10.55
2023-01-26T09:45:33.068Z,10.62
2023-01-26T09:48:09.265Z,10.38
2023-01-26T09:50:39.096Z,10.69
2023-01-26T09:53:08.692Z,10.81
2023-01-26T09:55:36.634Z,10.86
2023-01-26T09:58:05.121Z,10.94
2023-01-26T10:00:36.167Z,10.94
2023-01-26T10:03:11.058Z,11.03
2023-01-26T10:05:42.809Z,11.14
2023-01-26T10:08:12.397Z,11.20
2023-01-26T10:10:42.192Z,11.19
2023-01-26T10:13:11.029Z,11.31
2023-01-26T10:15:41.124Z,11.28
2023-01-26T10:18:10.100Z,11.42
2023-01-26T10:20:39.887Z,11.45
2023-01-26T10:23:08.759Z,11.51
2023-01-26T10:25:39.179Z,11.55
2023-01-26T10:28:13.477Z,11.62
2023-01-26T10:30:43.020Z,11.65
2023-01-26T10:33:16.518Z,11.71
2023-01-26T10:35:44.651Z,11.77
2023-01-26T10:38:29.186Z,11.82
2023-01-26T10:40:57.144Z,11.89
2023-01-26T10:43:25.033Z,11.98
2023-01-26T10:45:54.411Z,12.06
2023-01-26T10:48:24.209Z,12.16
2023-01-26T10:50:52.274Z,12.23
2023-01-26T10:53:23.825Z,12.28
2023-01-26T10:56:00.701Z,12.51
2023-01-26T10:58:49.278Z,12.90
2023-01-26T11:01:22.772Z,12.61
2023-01-26T11:04:05.982Z,12.47
2023-01-26T11:06:34.075Z,12.78
2023-01-26T11:09:12.705Z,13.42
2023-01-26T11:11:40.675Z,13.89
2023-01-26T11:14:12.480Z,14.32
2023-01-26T11:16:42.157Z,14.66
2023-01-26T11:19:13.609Z,15.01
2023-01-26T11:21:42.574Z,15.28
2023-01-26T11:24:12.433Z,15.65
2023-01-26T11:27:09.898Z,15.91
2023-01-26T11:29:47.869Z,16.10
2023-01-26T11:32:22.006Z,16.27
2023-01-26T11:34:54.843Z,16.40
2023-01-26T11:37:40.450Z,16.53
2023-01-26T11:40:27.966Z,16.71
2023-01-26T11:43:07.103Z,16.79
2023-01-26T11:45:38.037Z,16.73
2023-01-26T11:48:15.313Z,16.74
2023-01-26T11:50:46.449Z,16.76
2023-01-26T11:53:25.475Z,16.71
2023-01-26T11:55:59.850Z,16.88
2023-01-26T11:58:33.044Z,17.06
2023-01-26T12:01:01.925Z,17.04
2023-01-26T12:03:34.848Z,16.80
2023-01-26T12:06:04.020Z,16.52
2023-01-26T12:08:38.506Z,16.28
2023-01-26T12:11:21.360Z,16.02
2023-01-26T12:13:51.236Z,15.79
2023-01-26T12:16:20.010Z,15.65
2023-01-26T12:19:01.850Z,15.45
2023-01-26T12:21:38.533Z,15.07
2023-01-26T12:24:11.047Z,14.93
2023-01-26T12:26:48.387Z,14.94
2023-01-26T12:29:18.235Z,14.84
2023-01-26T12:31:49.050Z,14.72
2023-01-26T12:34:18.462Z,14.61
2023-01-26T12:36:49.450Z,14.44
2023-01-26T12:39:18.210Z,14.31
2023-01-26T12:41:59.892Z,14.21
2023-01-26T12:44:34.833Z,14.17
2023-01-26T12:47:06.897Z,14.09
2023-01-26T12:49:38.666Z,14.07
2023-01-26T12:52:08.696Z,14.01
2023-01-26T12:54:38.576Z,13.87
2023-01-26T12:57:07.714Z,13.97
2023-01-26T12:59:48.235Z,14.01
2023-01-26T13:02:27.471Z,13.98
2023-01-26T13:04:58.339Z,14.02
2023-01-26T13:07:34.390Z,14.02
2023-01-26T13:10:29.403Z,14.00
2023-01-26T13:12:59.394Z,13.94
2023-01-26T13:15:28.308Z,13.90
2023-01-26T13:17:57.796Z,13.85
2023-01-26T13:20:51.497Z,13.72
2023-01-26T13:23:52.810Z,13.76
2023-01-26T13:26:51.837Z,13.80
2023-01-26T13:29:35.435Z,13.85
2023-01-26T13:32:52.694Z,13.85
2023-01-26T13:35:22.757Z,13.90
2023-01-26T13:37:56.517Z,14.09
2023-01-26T13:40:25.988Z,14.19
2023-01-26T13:42:57.745Z,14.26
2023-01-26T13:45:30.534Z,14.24
2023-01-26T13:47:58.493Z,14.11
2023-01-26T13:50:32.240Z,14.01
2023-01-26T13:53:00.266Z,13.86
2023-01-26T13:55:29.289Z,13.84
2023-01-26T13:58:12.914Z,13.75
2023-01-26T14:00:40.892Z,13.67
2023-01-26T14:03:22.087Z,13.53
2023-01-26T14:05:55.491Z,13.54
2023-01-26T14:08:23.503Z,13.53
2023-01-26T14:10:51.496Z,13.51
2023-01-26T14:13:22.276Z,13.59
2023-01-26T14:15:57.476Z,13.65
2023-01-26T14:18:26.390Z,13.68
2023-01-26T14:21:01.076Z,13.66
2023-01-26T14:23:29.918Z,13.68
2023-01-26T14:25:58.950Z,13.65
2023-01-26T14:28:31.167Z,13.65
2023-01-26T14:31:01.302Z,13.69
2023-01-26T14:33:29.307Z,13.76
2023-01-26T14:35:58.136Z,13.77
2023-01-26T14:38:28.894Z,13.83
2023-01-26T14:40:57.439Z,13.79
2023-01-26T14:43:25.607Z,13.77
2023-01-26T14:45:55.272Z,13.82
2023-01-26T14:48:25.073Z,13.80
2023-01-26T14:50:52.995Z,13.90
2023-01-26T14:53:22.037Z,13.86
2023-01-26T14:55:51.648Z,13.83
2023-01-26T14:58:21.928Z,13.89
2023-01-26T15:00:50.247Z,13.84
2023-01-26T15:03:24.251Z,13.77
2023-01-26T15:06:08.339Z,13.70
2023-01-26T15:08:36.432Z,13.60
2023-01-26T15:11:23.400Z,13.61
2023-01-26T15:13:54.372Z,13.63
2023-01-26T15:16:23.055Z,13.65
2023-01-26T15:18:59.367Z,13.68
2023-01-26T15:21:32.856Z,13.67
2023-01-26T15:24:00.858Z,13.64
2023-01-26T15:26:31.044Z,13.60
2023-01-26T15:29:00.218Z,12.95
2023-01-26T15:31:30.751Z,13.53
2023-01-26T15:34:01.678Z,13.48
2023-01-26T15:36:35.284Z,13.44
2023-01-26T15:39:05.727Z,13.40
2023-01-26T15:41:35.122Z,13.43
2023-01-26T15:44:03.062Z,13.39
2023-01-26T15:46:31.137Z,13.34
2023-01-26T15:48:59.102Z,13.28
2023-01-26T15:51:27.089Z,13.20
2023-01-26T15:53:55.036Z,13.15
2023-01-26T15:56:22.977Z,13.08
2023-01-26T15:58:52.228Z,13.02
2023-01-26T16:01:22.556Z,12.93
2023-01-26T16:03:50.518Z,12.97
2023-01-26T16:06:23.837Z,12.94
2023-01-26T16:08:51.785Z,12.91
2023-01-26T16:11:19.878Z,12.89
2023-01-26T16:14:02.000Z,12.85
2023-01-26T16:16:32.774Z,12.82
2023-01-26T16:19:00.840Z,12.81
2023-01-26T16:21:31.529Z,12.80
2023-01-26T16:23:59.832Z,12.79
2023-01-26T16:26:28.098Z,12.77
2023-01-26T16:28:56.040Z,12.75
2023-01-26T16:31:25.368Z,12.71
2023-01-26T16:33:55.054Z,12.70
2023-01-26T16:36:23.064Z,12.67
2023-01-26T16:38:51.078Z,12.64
2023-01-26T16:41:22.497Z,12.62
2023-01-26T16:43:50.442Z,12.60
2023-01-26T16:46:18.408Z,12.59
2023-01-26T16:48:46.402Z,12.57
2023-01-26T16:51:20.921Z,12.57
2023-01-26T16:53:49.033Z,12.52
2023-01-26T16:56:17.386Z,12.48
2023-01-26T16:58:45.553Z,12.49
2023-01-26T17:01:22.436Z,12.50
2023-01-26T17:03:50.507Z,12.50
2023-01-26T17:06:20.365Z,12.53
2023-01-26T17:08:48.367Z,12.55
2023-01-26T17:11:17.644Z,12.55
2023-01-26T17:13:45.607Z,12.56
2023-01-26T17:16:15.354Z,12.51
2023-01-26T17:18:45.550Z,12.59
2023-01-26T17:21:13.784Z,12.53
2023-01-26T17:23:44.467Z,12.58
2023-01-26T17:26:13.179Z,12.56
2023-01-26T17:28:41.112Z,12.56
2023-01-26T17:31:10.791Z,12.57
2023-01-26T17:33:38.866Z,12.55
2023-01-26T17:36:07.909Z,12.50
2023-01-26T17:38:36.046Z,12.48
2023-01-26T17:41:05.906Z,12.47
2023-01-26T17:43:33.883Z,12.48
2023-01-26T17:46:06.340Z,12.48
2023-01-26T17:48:35.061Z,12.48
2023-01-26T17:51:05.591Z,12.47
2023-01-26T17:53:33.523Z,12.49
2023-01-26T17:56:01.552Z,12.46
2023-01-26T17:58:30.887Z,12.47
2023-01-26T18:00:58.887Z,12.47
2023-01-26T18:03:27.486Z,12.47
2023-01-26T18:05:55.420Z,12.46
2023-01-26T18:08:23.634Z,12.47
2023-01-26T18:10:51.714Z,12.47
2023-01-26T18:13:19.681Z,12.44
2023-01-26T18:15:49.148Z,12.41
2023-01-26T18:18:17.178Z,12.43
2023-01-26T18:20:45.236Z,12.45
2023-01-26T18:23:13.196Z,12.40
2023-01-26T18:25:41.185Z,12.44
2023-01-26T18:28:09.273Z,12.44
2023-01-26T18:30:37.276Z,12.43
2023-01-26T18:33:07.054Z,12.40
2023-01-26T18:35:35.363Z,12.41
2023-01-26T18:38:03.579Z,12.29
2023-01-26T18:40:31.936Z,12.35
2023-01-26T18:42:59.839Z,12.37
2023-01-26T18:45:27.837Z,12.37
2023-01-26T18:47:55.811Z,12.32
2023-01-26T18:50:25.137Z,12.32
2023-01-26T18:52:53.061Z,12.32
2023-01-26T18:55:21.037Z,12.32
2023-01-26T18:57:50.807Z,12.34
2023-01-26T19:00:19.853Z,12.33
2023-01-26T19:02:47.823Z,12.38
2023-01-26T19:05:15.871Z,12.32
2023-01-26T19:07:45.193Z,12.35
2023-01-26T19:10:13.161Z,12.33
2023-01-26T19:12:41.134Z,12.31
2023-01-26T19:15:10.923Z,12.30
2023-01-26T19:17:38.972Z,12.30
2023-01-26T19:20:08.159Z,12.28
2023-01-26T19:22:36.128Z,12.24
2023-01-26T19:25:06.080Z,12.26
2023-01-26T19:27:34.063Z,12.20
2023-01-26T19:30:02.156Z,12.27
2023-01-26T19:32:30.133Z,12.26
2023-01-26T19:34:58.065Z,12.25
2023-01-26T19:37:26.046Z,12.26
2023-01-26T19:39:54.015Z,12.24
2023-01-26T19:42:23.402Z,12.21
2023-01-26T19:44:51.364Z,12.22
2023-01-26T19:47:19.409Z,12.23
2023-01-26T19:49:47.357Z,12.24
2023-01-26T19:52:15.373Z,12.24
2023-01-26T19:54:43.344Z,12.25
2023-01-26T19:57:11.363Z,12.26
2023-01-26T19:59:40.719Z,12.27
2023-01-26T20:02:11.419Z,12.25
2023-01-26T20:04:39.652Z,12.25
2023-01-26T20:07:08.181Z,12.24
2023-01-26T20:09:36.266Z,12.22
2023-01-26T20:12:06.176Z,12.17
2023-01-26T20:14:34.325Z,12.13
2023-01-26T20:17:03.679Z,12.09
2023-01-26T20:19:34.900Z,12.07
2023-01-26T20:22:02.982Z,12.06
2023-01-26T20:24:31.006Z,12.06
2023-01-26T20:26:59.012Z,12.09
2023-01-26T20:29:27.142Z,12.07
2023-01-26T20:31:55.479Z,12.10
2023-01-26T20:34:24.931Z,12.10
2023-01-26T20:36:57.752Z,12.01
2023-01-26T20:39:25.916Z,12.07
2023-01-26T20:41:54.101Z,12.07
2023-01-26T20:44:22.069Z,12.04
2023-01-26T20:46:50.088Z,11.99
2023-01-26T20:49:21.135Z,12.00
2023-01-26T20:51:50.708Z,12.02
2023-01-26T20:54:18.865Z,11.97
2023-01-26T20:56:48.082Z,11.98
2023-01-26T20:59:16.102Z,11.98
2023-01-26T21:01:44.239Z,11.96
2023-01-26T21:04:13.089Z,11.97
2023-01-26T21:06:41.819Z,11.94
2023-01-26T21:09:12.886Z,11.90
2023-01-26T21:11:41.120Z,11.87
2023-01-26T21:14:11.445Z,11.85
2023-01-26T21:16:39.463Z,11.84
2023-01-26T21:19:07.592Z,11.81
2023-01-26T21:21:35.710Z,11.81
2023-01-26T21:24:03.869Z,11.83
2023-01-26T21:26:34.746Z,11.82
2023-01-26T21:29:02.755Z,11.76
2023-01-26T21:31:31.707Z,11.80
2023-01-26T21:34:00.125Z,11.78
2023-01-26T21:36:28.923Z,11.81
2023-01-26T21:38:57.613Z,11.82
2023-01-26T21:41:43.662Z,11.83
2023-01-26T21:44:14.002Z,11.85
2023-01-26T21:46:42.065Z,11.89
2023-01-26T21:49:10.893Z,11.87
2023-01-26T21:51:56.093Z,11.88
2023-01-26T21:54:24.009Z,11.89
2023-01-26T21:56:51.918Z,11.92
2023-01-26T21:59:20.263Z,11.91
2023-01-26T22:01:48.773Z,11.85
2023-01-26T22:04:17.807Z,11.85
2023-01-26T22:06:45.772Z,11.94
2023-01-26T22:09:15.204Z,11.94
2023-01-26T22:11:43.205Z,11.94
2023-01-26T22:14:14.698Z,11.89
2023-01-26T22:16:44.121Z,11.97
2023-01-26T22:19:12.372Z,11.98
2023-01-26T22:21:40.412Z,11.92
2023-01-26T22:24:11.664Z,11.98
2023-01-26T22:26:39.909Z,11.96
2023-01-26T22:29:07.990Z,11.92
2023-01-26T22:31:36.000Z,11.85
2023-01-26T22:34:05.446Z,11.96
2023-01-26T22:36:33.500Z,11.95
2023-01-26T22:39:01.524Z,11.94
2023-01-26T22:41:30.016Z,11.91
2023-01-26T22:43:58.423Z,11.90
2023-01-26T22:46:27.190Z,11.91
2023-01-26T22:48:57.159Z,11.87
2023-01-26T22:51:27.110Z,11.86
2023-01-26T22:53:55.223Z,11.78
2023-01-26T22:56:23.214Z,11.82
2023-01-26T22:58:57.983Z,11.78
2023-01-26T23:01:26.904Z,11.63
2023-01-26T23:03:55.725Z,11.64
2023-01-26T23:06:23.760Z,11.55
2023-01-26T23:08:53.097Z,11.50
2023-01-26T23:11:22.002Z,11.42
2023-01-26T23:13:50.877Z,11.34
2023-01-26T23:16:19.008Z,11.30
2023-01-26T23:18:47.013Z,11.25
2023-01-26T23:21:15.135Z,11.18
2023-01-26T23:23:43.106Z,11.14
2023-01-26T23:26:12.910Z,11.09
2023-01-26T23:28:41.691Z,10.99
2023-01-26T23:31:09.752Z,11.01
2023-01-26T23:33:37.827Z,10.90
2023-01-26T23:36:06.891Z,10.86
2023-01-26T23:38:34.837Z,10.85
2023-01-26T23:41:03.275Z,10.73
2023-01-26T23:43:32.831Z,10.68
2023-01-26T23:46:00.779Z,10.63
2023-01-26T23:48:28.747Z,10.54
2023-01-26T23:50:57.058Z,10.48
2023-01-26T23:53:25.014Z,10.43
2023-01-26T23:55:52.990Z,10.36
2023-01-26T23:58:20.935Z,10.34
